sensor_id;sensor_type;location;lat;lon;timestamp;P1;durP1;ratioP1;P2;durP2;ratioP2
577;SDS011;275;48.492;9.214;2022-12-07T00:00:50;13.07;;;11.93;;
577;SDS011;275;48.492;9.214;2022-12-07T00:03:17;13.48;;;12.38;;
577;SDS011;275;48.492;9.214;2022-12-07T00:05:44;12.90;;;11.70;;
577;SDS011;275;48.492;9.214;2022-12-07T00:08:11;13.20;;;12.10;;
577;SDS011;275;48.492;9.214;2022-12-07T00:10:39;13.23;;;12.02;;
577;SDS011;275;48.492;9.214;2022-12-07T00:13:06;14.00;;;12.80;;
577;SDS011;275;48.492;9.214;2022-12-07T00:15:33;11.80;;;10.82;;
577;SDS011;275;48.492;9.214;2022-12-07T00:18:01;13.35;;;12.23;;
577;SDS011;275;48.492;9.214;2022-12-07T00:20:28;13.35;;;12.23;;
577;SDS011;275;48.492;9.214;2022-12-07T00:22:56;13.45;;;12.15;;
577;SDS011;275;48.492;9.214;2022-12-07T00:25:22;13.88;;;12.77;;
577;SDS011;275;48.492;9.214;2022-12-07T00:27:51;14.43;;;12.98;;
577;SDS011;275;48.492;9.214;2022-12-07T00:30:18;12.68;;;11.57;;
577;SDS011;275;48.492;9.214;2022-12-07T00:32:45;13.35;;;12.25;;
577;SDS011;275;48.492;9.214;2022-12-07T00:35:12;13.85;;;12.75;;
577;SDS011;275;48.492;9.214;2022-12-07T00:37:39;12.10;;;11.10;;
577;SDS011;275;48.492;9.214;2022-12-07T00:40:06;12.75;;;11.55;;
577;SDS011;275;48.492;9.214;2022-12-07T00:42:34;13.10;;;11.68;;
577;SDS011;275;48.492;9.214;2022-12-07T00:45:02;12.50;;;11.30;;
577;SDS011;275;48.492;9.214;2022-12-07T00:47:29;12.30;;;11.30;;
577;SDS011;275;48.492;9.214;2022-12-07T00:49:56;12.50;;;11.55;;
577;SDS011;275;48.492;9.214;2022-12-07T00:52:23;13.35;;;12.25;;
577;SDS011;275;48.492;9.214;2022-12-07T00:54:50;12.77;;;11.57;;
577;SDS011;275;48.492;9.214;2022-12-07T00:57:20;11.93;;;11.02;;
577;SDS011;275;48.492;9.214;2022-12-07T00:59:47;11.85;;;10.93;;
577;SDS011;275;48.492;9.214;2022-12-07T01:02:15;12.00;;;10.95;;
577;SDS011;275;48.492;9.214;2022-12-07T01:04:42;12.68;;;11.68;;
577;SDS011;275;48.492;9.214;2022-12-07T01:07:09;12.60;;;11.55;;
577;SDS011;275;48.492;9.214;2022-12-07T01:09:36;12.85;;;11.55;;
577;SDS011;275;48.492;9.214;2022-12-07T01:12:03;11.52;;;10.55;;
577;SDS011;275;48.492;9.214;2022-12-07T01:14:30;12.80;;;11.73;;
577;SDS011;275;48.492;9.214;2022-12-07T01:16:57;13.07;;;12.00;;
577;SDS011;275;48.492;9.214;2022-12-07T01:19:25;13.00;;;11.90;;
577;SDS011;275;48.492;9.214;2022-12-07T01:21:52;13.48;;;12.38;;
577;SDS011;275;48.492;9.214;2022-12-07T01:24:19;12.30;;;11.23;;
577;SDS011;275;48.492;9.214;2022-12-07T01:26:45;12.65;;;11.70;;
577;SDS011;275;48.492;9.214;2022-12-07T01:29:15;11.05;;;10.15;;
577;SDS011;275;48.492;9.214;2022-12-07T01:31:42;12.23;;;11.25;;
577;SDS011;275;48.492;9.214;2022-12-07T01:34:08;11.43;;;10.45;;
577;SDS011;275;48.492;9.214;2022-12-07T01:36:37;12.73;;;11.73;;
577;SDS011;275;48.492;9.214;2022-12-07T01:39:05;12.10;;;11.10;;
577;SDS011;275;48.492;9.214;2022-12-07T01:41:34;13.55;;;12.55;;
577;SDS011;275;48.492;9.214;2022-12-07T01:44:08;12.70;;;11.70;;
577;SDS011;275;48.492;9.214;2022-12-07T01:46:41;14.85;;;13.55;;
577;SDS011;275;48.492;9.214;2022-12-07T01:49:10;12.88;;;11.77;;
577;SDS011;275;48.492;9.214;2022-12-07T01:51:42;12.38;;;11.38;;
577;SDS011;275;48.492;9.214;2022-12-07T01:54:12;14.25;;;13.10;;
577;SDS011;275;48.492;9.214;2022-12-07T01:56:41;12.27;;;11.27;;
577;SDS011;275;48.492;9.214;2022-12-07T01:59:13;13.25;;;12.13;;
577;SDS011;275;48.492;9.214;2022-12-07T02:01:40;11.88;;;10.93;;
577;SDS011;275;48.492;9.214;2022-12-07T02:04:07;12.50;;;11.50;;
577;SDS011;275;48.492;9.214;2022-12-07T02:06:35;11.80;;;10.80;;
577;SDS011;275;48.492;9.214;2022-12-07T02:09:04;12.15;;;11.23;;
577;SDS011;275;48.492;9.214;2022-12-07T02:11:31;12.18;;;11.15;;
577;SDS011;275;48.492;9.214;2022-12-07T02:13:57;12.30;;;11.30;;
577;SDS011;275;48.492;9.214;2022-12-07T02:16:26;11.35;;;10.52;;
577;SDS011;275;48.492;9.214;2022-12-07T02:19:04;12.40;;;11.40;;
577;SDS011;275;48.492;9.214;2022-12-07T02:21:51;10.60;;;9.70;;
577;SDS011;275;48.492;9.214;2022-12-07T02:24:34;11.60;;;10.70;;
577;SDS011;275;48.492;9.214;2022-12-07T02:27:21;10.80;;;9.80;;
577;SDS011;275;48.492;9.214;2022-12-07T02:30:05;11.63;;;10.63;;
577;SDS011;275;48.492;9.214;2022-12-07T02:32:37;10.93;;;10.02;;
577;SDS011;275;48.492;9.214;2022-12-07T02:35:13;11.82;;;10.82;;
577;SDS011;275;48.492;9.214;2022-12-07T02:37:48;11.70;;;10.43;;
577;SDS011;275;48.492;9.214;2022-12-07T02:40:25;11.05;;;10.15;;
577;SDS011;275;48.492;9.214;2022-12-07T02:42:55;11.07;;;10.18;;
577;SDS011;275;48.492;9.214;2022-12-07T02:45:27;12.20;;;11.10;;
577;SDS011;275;48.492;9.214;2022-12-07T02:47:58;12.60;;;11.52;;
577;SDS011;275;48.492;9.214;2022-12-07T02:50:26;12.07;;;11.07;;
577;SDS011;275;48.492;9.214;2022-12-07T02:52:53;12.00;;;11.05;;
577;SDS011;275;48.492;9.214;2022-12-07T02:55:22;12.10;;;11.10;;
577;SDS011;275;48.492;9.214;2022-12-07T03:00:52;11.52;;;10.43;;
577;SDS011;275;48.492;9.214;2022-12-07T03:03:27;11.90;;;10.93;;
577;SDS011;275;48.492;9.214;2022-12-07T03:08:48;12.30;;;11.20;;
577;SDS011;275;48.492;9.214;2022-12-07T03:11:22;11.63;;;10.73;;
577;SDS011;275;48.492;9.214;2022-12-07T03:13:56;12.55;;;11.55;;
577;SDS011;275;48.492;9.214;2022-12-07T03:16:31;14.00;;;12.90;;
577;SDS011;275;48.492;9.214;2022-12-07T03:19:02;12.75;;;11.73;;
577;SDS011;275;48.492;9.214;2022-12-07T03:21:37;12.98;;;11.85;;
577;SDS011;275;48.492;9.214;2022-12-07T03:24:07;12.68;;;11.45;;
577;SDS011;275;48.492;9.214;2022-12-07T03:26:38;12.93;;;11.90;;
577;SDS011;275;48.492;9.214;2022-12-07T03:29:09;12.10;;;11.10;;
577;SDS011;275;48.492;9.214;2022-12-07T03:31:43;11.88;;;10.88;;
577;SDS011;275;48.492;9.214;2022-12-07T03:34:14;12.27;;;11.27;;
577;SDS011;275;48.492;9.214;2022-12-07T03:36:47;14.43;;;13.23;;
577;SDS011;275;48.492;9.214;2022-12-07T03:39:21;15.27;;;13.98;;
577;SDS011;275;48.492;9.214;2022-12-07T03:41:51;15.30;;;14.00;;
577;SDS011;275;48.492;9.214;2022-12-07T03:44:19;14.55;;;13.35;;
577;SDS011;275;48.492;9.214;2022-12-07T03:46:49;14.93;;;13.63;;
577;SDS011;275;48.492;9.214;2022-12-07T03:49:23;14.25;;;13.15;;
577;SDS011;275;48.492;9.214;2022-12-07T03:51:54;13.85;;;12.63;;
577;SDS011;275;48.492;9.214;2022-12-07T03:54:28;14.52;;;13.23;;
577;SDS011;275;48.492;9.214;2022-12-07T03:56:59;13.50;;;12.40;;
577;SDS011;275;48.492;9.214;2022-12-07T03:59:28;13.75;;;12.55;;
577;SDS011;275;48.492;9.214;2022-12-07T04:02:01;14.52;;;13.32;;
577;SDS011;275;48.492;9.214;2022-12-07T04:04:29;13.85;;;12.65;;
577;SDS011;275;48.492;9.214;2022-12-07T04:06:56;14.63;;;13.32;;
577;SDS011;275;48.492;9.214;2022-12-07T04:09:23;14.82;;;13.52;;
577;SDS011;275;48.492;9.214;2022-12-07T04:11:50;14.52;;;13.32;;
577;SDS011;275;48.492;9.214;2022-12-07T04:14:17;14.85;;;13.55;;
577;SDS011;275;48.492;9.214;2022-12-07T04:16:46;14.13;;;12.82;;
577;SDS011;275;48.492;9.214;2022-12-07T04:19:17;13.48;;;12.30;;
577;SDS011;275;48.492;9.214;2022-12-07T04:21:45;12.10;;;11.10;;
577;SDS011;275;48.492;9.214;2022-12-07T04:24:12;13.48;;;12.27;;
577;SDS011;275;48.492;9.214;2022-12-07T04:26:40;14.68;;;13.43;;
577;SDS011;275;48.492;9.214;2022-12-07T04:29:08;16.23;;;14.90;;
577;SDS011;275;48.492;9.214;2022-12-07T04:31:35;14.75;;;13.65;;
577;SDS011;275;48.492;9.214;2022-12-07T04:34:02;17.42;;;15.93;;
577;SDS011;275;48.492;9.214;2022-12-07T04:36:31;16.15;;;14.77;;
577;SDS011;275;48.492;9.214;2022-12-07T04:38:58;15.80;;;14.50;;
577;SDS011;275;48.492;9.214;2022-12-07T04:41:26;17.55;;;16.05;;
577;SDS011;275;48.492;9.214;2022-12-07T04:43:53;14.68;;;13.43;;
577;SDS011;275;48.492;9.214;2022-12-07T04:46:21;18.13;;;16.42;;
577;SDS011;275;48.492;9.214;2022-12-07T04:48:49;17.70;;;16.20;;
577;SDS011;275;48.492;9.214;2022-12-07T04:51:16;17.20;;;15.68;;
577;SDS011;275;48.492;9.214;2022-12-07T04:53:47;16.15;;;14.68;;
577;SDS011;275;48.492;9.214;2022-12-07T04:56:15;16.67;;;15.10;;
577;SDS011;275;48.492;9.214;2022-12-07T04:58:43;17.77;;;16.08;;
577;SDS011;275;48.492;9.214;2022-12-07T05:01:11;17.38;;;15.88;;
577;SDS011;275;48.492;9.214;2022-12-07T05:03:38;16.65;;;15.27;;
577;SDS011;275;48.492;9.214;2022-12-07T05:06:05;17.92;;;16.17;;
577;SDS011;275;48.492;9.214;2022-12-07T05:08:33;16.35;;;14.85;;
577;SDS011;275;48.492;9.214;2022-12-07T05:11:02;17.50;;;16.02;;
577;SDS011;275;48.492;9.214;2022-12-07T05:13:30;17.35;;;15.85;;
577;SDS011;275;48.492;9.214;2022-12-07T05:15:58;16.67;;;15.27;;
577;SDS011;275;48.492;9.214;2022-12-07T05:18:25;14.90;;;13.70;;
577;SDS011;275;48.492;9.214;2022-12-07T05:20:52;14.98;;;13.75;;
577;SDS011;275;48.492;9.214;2022-12-07T05:23:19;12.95;;;11.75;;
577;SDS011;275;48.492;9.214;2022-12-07T05:25:46;14.77;;;13.57;;
577;SDS011;275;48.492;9.214;2022-12-07T05:28:14;14.15;;;12.95;;
577;SDS011;275;48.492;9.214;2022-12-07T05:30:41;14.10;;;13.00;;
577;SDS011;275;48.492;9.214;2022-12-07T05:33:08;13.73;;;12.60;;
577;SDS011;275;48.492;9.214;2022-12-07T05:35:34;15.48;;;14.15;;
577;SDS011;275;48.492;9.214;2022-12-07T05:38:02;15.10;;;13.80;;
577;SDS011;275;48.492;9.214;2022-12-07T05:40:29;14.52;;;13.32;;
577;SDS011;275;48.492;9.214;2022-12-07T05:42:56;16.55;;;15.15;;
577;SDS011;275;48.492;9.214;2022-12-07T05:45:25;16.23;;;14.93;;
577;SDS011;275;48.492;9.214;2022-12-07T05:47:51;16.88;;;15.50;;
577;SDS011;275;48.492;9.214;2022-12-07T05:50:18;18.65;;;17.02;;
577;SDS011;275;48.492;9.214;2022-12-07T05:52:45;16.20;;;14.90;;
577;SDS011;275;48.492;9.214;2022-12-07T05:55:12;18.45;;;17.02;;
577;SDS011;275;48.492;9.214;2022-12-07T05:57:39;18.48;;;16.98;;
577;SDS011;275;48.492;9.214;2022-12-07T06:00:27;19.58;;;18.00;;
577;SDS011;275;48.492;9.214;2022-12-07T06:02:53;19.65;;;18.00;;
577;SDS011;275;48.492;9.214;2022-12-07T06:05:20;20.40;;;18.60;;
577;SDS011;275;48.492;9.214;2022-12-07T06:07:47;19.30;;;17.70;;
577;SDS011;275;48.492;9.214;2022-12-07T06:10:13;21.95;;;20.05;;
577;SDS011;275;48.492;9.214;2022-12-07T06:12:40;20.38;;;18.52;;
577;SDS011;275;48.492;9.214;2022-12-07T06:15:08;21.00;;;19.20;;
577;SDS011;275;48.492;9.214;2022-12-07T06:17:39;21.92;;;20.00;;
577;SDS011;275;48.492;9.214;2022-12-07T06:20:06;20.55;;;18.75;;
577;SDS011;275;48.492;9.214;2022-12-07T06:22:33;23.17;;;21.17;;
577;SDS011;275;48.492;9.214;2022-12-07T06:25:00;22.10;;;20.15;;
577;SDS011;275;48.492;9.214;2022-12-07T06:27:28;19.63;;;17.83;;
577;SDS011;275;48.492;9.214;2022-12-07T06:29:56;18.92;;;17.33;;
577;SDS011;275;48.492;9.214;2022-12-07T06:32:23;17.80;;;16.20;;
577;SDS011;275;48.492;9.214;2022-12-07T06:34:51;18.00;;;16.35;;
577;SDS011;275;48.492;9.214;2022-12-07T06:37:18;16.85;;;15.25;;
577;SDS011;275;48.492;9.214;2022-12-07T06:39:45;16.48;;;14.98;;
577;SDS011;275;48.492;9.214;2022-12-07T06:42:12;16.88;;;15.48;;
577;SDS011;275;48.492;9.214;2022-12-07T06:44:39;16.77;;;15.30;;
577;SDS011;275;48.492;9.214;2022-12-07T06:47:05;19.15;;;17.40;;
577;SDS011;275;48.492;9.214;2022-12-07T06:49:32;20.95;;;18.90;;
577;SDS011;275;48.492;9.214;2022-12-07T06:52:01;25.50;;;23.13;;
577;SDS011;275;48.492;9.214;2022-12-07T06:54:29;23.02;;;20.83;;
577;SDS011;275;48.492;9.214;2022-12-07T06:56:56;21.95;;;19.85;;
577;SDS011;275;48.492;9.214;2022-12-07T06:59:23;20.55;;;18.65;;
577;SDS011;275;48.492;9.214;2022-12-07T07:01:50;20.00;;;18.10;;
577;SDS011;275;48.492;9.214;2022-12-07T07:04:17;19.73;;;17.60;;
577;SDS011;275;48.492;9.214;2022-12-07T07:06:43;19.70;;;17.90;;
577;SDS011;275;48.492;9.214;2022-12-07T07:09:12;18.17;;;16.67;;
577;SDS011;275;48.492;9.214;2022-12-07T07:11:39;17.23;;;15.73;;
577;SDS011;275;48.492;9.214;2022-12-07T07:14:06;16.05;;;14.55;;
577;SDS011;275;48.492;9.214;2022-12-07T07:16:32;14.90;;;13.50;;
577;SDS011;275;48.492;9.214;2022-12-07T07:18:59;15.80;;;14.50;;
577;SDS011;275;48.492;9.214;2022-12-07T07:21:26;15.10;;;13.73;;
577;SDS011;275;48.492;9.214;2022-12-07T07:23:53;15.23;;;13.73;;
577;SDS011;275;48.492;9.214;2022-12-07T07:26:21;13.52;;;12.40;;
577;SDS011;275;48.492;9.214;2022-12-07T07:28:48;15.88;;;14.57;;
577;SDS011;275;48.492;9.214;2022-12-07T07:31:15;15.45;;;14.13;;
577;SDS011;275;48.492;9.214;2022-12-07T07:33:41;15.40;;;13.82;;
577;SDS011;275;48.492;9.214;2022-12-07T07:36:08;17.10;;;15.60;;
577;SDS011;275;48.492;9.214;2022-12-07T07:38:35;19.48;;;17.77;;
577;SDS011;275;48.492;9.214;2022-12-07T07:41:02;17.77;;;16.27;;
577;SDS011;275;48.492;9.214;2022-12-07T07:43:30;18.02;;;16.23;;
577;SDS011;275;48.492;9.214;2022-12-07T07:45:58;16.70;;;15.20;;
577;SDS011;275;48.492;9.214;2022-12-07T07:48:25;17.85;;;16.15;;
577;SDS011;275;48.492;9.214;2022-12-07T07:50:51;19.25;;;17.60;;
577;SDS011;275;48.492;9.214;2022-12-07T07:53:18;19.05;;;17.30;;
577;SDS011;275;48.492;9.214;2022-12-07T07:55:50;21.45;;;19.65;;
577;SDS011;275;48.492;9.214;2022-12-07T07:58:18;20.52;;;18.83;;
577;SDS011;275;48.492;9.214;2022-12-07T08:00:46;19.08;;;17.40;;
577;SDS011;275;48.492;9.214;2022-12-07T08:03:13;16.50;;;15.13;;
577;SDS011;275;48.492;9.214;2022-12-07T08:05:39;18.30;;;16.75;;
577;SDS011;275;48.492;9.214;2022-12-07T08:08:06;17.83;;;16.23;;
577;SDS011;275;48.492;9.214;2022-12-07T08:10:33;17.25;;;15.85;;
577;SDS011;275;48.492;9.214;2022-12-07T08:13:02;16.90;;;15.27;;
577;SDS011;275;48.492;9.214;2022-12-07T08:15:39;18.00;;;16.50;;
577;SDS011;275;48.492;9.214;2022-12-07T08:18:08;16.92;;;15.40;;
577;SDS011;275;48.492;9.214;2022-12-07T08:20:36;18.40;;;16.80;;
577;SDS011;275;48.492;9.214;2022-12-07T08:23:04;18.35;;;16.75;;
577;SDS011;275;48.492;9.214;2022-12-07T08:25:31;21.60;;;19.50;;
577;SDS011;275;48.492;9.214;2022-12-07T08:27:58;16.30;;;14.65;;
577;SDS011;275;48.492;9.214;2022-12-07T08:30:26;16.05;;;14.68;;
577;SDS011;275;48.492;9.214;2022-12-07T08:32:54;14.35;;;13.05;;
577;SDS011;275;48.492;9.214;2022-12-07T08:35:23;14.32;;;13.13;;
577;SDS011;275;48.492;9.214;2022-12-07T08:37:51;14.40;;;13.10;;
577;SDS011;275;48.492;9.214;2022-12-07T08:40:18;15.27;;;13.88;;
577;SDS011;275;48.492;9.214;2022-12-07T08:42:48;16.08;;;13.63;;
577;SDS011;275;48.492;9.214;2022-12-07T08:45:15;13.50;;;12.45;;
577;SDS011;275;48.492;9.214;2022-12-07T08:47:43;15.02;;;13.20;;
577;SDS011;275;48.492;9.214;2022-12-07T08:50:14;14.27;;;12.98;;
577;SDS011;275;48.492;9.214;2022-12-07T08:52:42;15.40;;;14.00;;
577;SDS011;275;48.492;9.214;2022-12-07T08:55:10;15.98;;;14.60;;
577;SDS011;275;48.492;9.214;2022-12-07T08:57:38;14.27;;;12.98;;
577;SDS011;275;48.492;9.214;2022-12-07T09:00:06;12.57;;;11.48;;
577;SDS011;275;48.492;9.214;2022-12-07T09:02:34;12.20;;;11.20;;
577;SDS011;275;48.492;9.214;2022-12-07T09:05:01;13.98;;;12.77;;
577;SDS011;275;48.492;9.214;2022-12-07T09:07:27;13.73;;;12.63;;
577;SDS011;275;48.492;9.214;2022-12-07T09:09:59;15.30;;;13.98;;
577;SDS011;275;48.492;9.214;2022-12-07T09:12:26;22.50;;;20.40;;
577;SDS011;275;48.492;9.214;2022-12-07T09:14:53;15.02;;;13.75;;
577;SDS011;275;48.492;9.214;2022-12-07T09:17:20;14.23;;;13.02;;
577;SDS011;275;48.492;9.214;2022-12-07T09:19:47;12.55;;;11.55;;
577;SDS011;275;48.492;9.214;2022-12-07T09:22:14;13.10;;;11.95;;
577;SDS011;275;48.492;9.214;2022-12-07T09:24:41;12.70;;;11.50;;
577;SDS011;275;48.492;9.214;2022-12-07T09:27:09;12.50;;;11.40;;
577;SDS011;275;48.492;9.214;2022-12-07T09:29:36;12.60;;;11.45;;
577;SDS011;275;48.492;9.214;2022-12-07T09:32:03;13.77;;;12.45;;
577;SDS011;275;48.492;9.214;2022-12-07T09:34:30;14.13;;;12.77;;
577;SDS011;275;48.492;9.214;2022-12-07T09:36:58;14.02;;;12.80;;
577;SDS011;275;48.492;9.214;2022-12-07T09:39:28;11.73;;;10.63;;
577;SDS011;275;48.492;9.214;2022-12-07T09:41:54;16.20;;;14.80;;
577;SDS011;275;48.492;9.214;2022-12-07T09:44:25;14.45;;;13.15;;
577;SDS011;275;48.492;9.214;2022-12-07T09:46:53;15.32;;;14.02;;
577;SDS011;275;48.492;9.214;2022-12-07T09:49:22;14.77;;;13.25;;
577;SDS011;275;48.492;9.214;2022-12-07T09:51:59;13.32;;;12.05;;
577;SDS011;275;48.492;9.214;2022-12-07T09:54:28;13.13;;;11.80;;
577;SDS011;275;48.492;9.214;2022-12-07T09:56:56;15.70;;;14.30;;
577;SDS011;275;48.492;9.214;2022-12-07T09:59:24;14.13;;;12.88;;
577;SDS011;275;48.492;9.214;2022-12-07T10:01:51;11.73;;;10.68;;
577;SDS011;275;48.492;9.214;2022-12-07T10:04:19;11.50;;;10.40;;
577;SDS011;275;48.492;9.214;2022-12-07T10:06:48;14.73;;;13.32;;
577;SDS011;275;48.492;9.214;2022-12-07T10:09:16;11.68;;;10.68;;
577;SDS011;275;48.492;9.214;2022-12-07T10:11:58;13.02;;;11.93;;
577;SDS011;275;48.492;9.214;2022-12-07T10:14:28;13.10;;;11.90;;
577;SDS011;275;48.492;9.214;2022-12-07T10:16:57;12.50;;;11.25;;
577;SDS011;275;48.492;9.214;2022-12-07T10:19:25;12.98;;;11.90;;
577;SDS011;275;48.492;9.214;2022-12-07T10:22:04;12.80;;;11.60;;
577;SDS011;275;48.492;9.214;2022-12-07T10:24:35;9.90;;;9.00;;
577;SDS011;275;48.492;9.214;2022-12-07T10:27:04;11.43;;;10.38;;
577;SDS011;275;48.492;9.214;2022-12-07T10:29:36;10.70;;;9.70;;
577;SDS011;275;48.492;9.214;2022-12-07T10:32:05;12.38;;;11.38;;
577;SDS011;275;48.492;9.214;2022-12-07T10:34:52;8.30;;;7.60;;
577;SDS011;275;48.492;9.214;2022-12-07T10:37:50;8.70;;;8.00;;
577;SDS011;275;48.492;9.214;2022-12-07T10:40:26;8.88;;;8.02;;
577;SDS011;275;48.492;9.214;2022-12-07T10:43:03;10.80;;;8.65;;
577;SDS011;275;48.492;9.214;2022-12-07T10:45:34;13.52;;;12.32;;
577;SDS011;275;48.492;9.214;2022-12-07T10:48:08;10.40;;;9.40;;
577;SDS011;275;48.492;9.214;2022-12-07T10:50:47;9.25;;;8.45;;
577;SDS011;275;48.492;9.214;2022-12-07T10:53:33;11.65;;;10.55;;
577;SDS011;275;48.492;9.214;2022-12-07T10:56:13;12.38;;;11.38;;
577;SDS011;275;48.492;9.214;2022-12-07T10:58:59;9.68;;;8.88;;
577;SDS011;275;48.492;9.214;2022-12-07T11:01:43;8.93;;;8.13;;
577;SDS011;275;48.492;9.214;2022-12-07T11:04:21;9.15;;;8.35;;
577;SDS011;275;48.492;9.214;2022-12-07T11:06:58;12.45;;;11.35;;
577;SDS011;275;48.492;9.214;2022-12-07T11:09:40;17.40;;;15.80;;
577;SDS011;275;48.492;9.214;2022-12-07T11:12:25;16.42;;;14.80;;
577;SDS011;275;48.492;9.214;2022-12-07T11:15:01;10.45;;;9.55;;
577;SDS011;275;48.492;9.214;2022-12-07T11:17:41;13.70;;;12.32;;
577;SDS011;275;48.492;9.214;2022-12-07T11:20:18;11.07;;;10.18;;
577;SDS011;275;48.492;9.214;2022-12-07T11:22:58;14.82;;;13.48;;
577;SDS011;275;48.492;9.214;2022-12-07T11:25:31;12.52;;;11.38;;
577;SDS011;275;48.492;9.214;2022-12-07T11:28:11;23.13;;;20.92;;
577;SDS011;275;48.492;9.214;2022-12-07T11:30:50;18.00;;;16.20;;
577;SDS011;275;48.492;9.214;2022-12-07T11:33:27;14.68;;;13.27;;
577;SDS011;275;48.492;9.214;2022-12-07T11:36:02;9.52;;;8.63;;
577;SDS011;275;48.492;9.214;2022-12-07T11:38:37;17.02;;;15.32;;
577;SDS011;275;48.492;9.214;2022-12-07T11:41:10;23.02;;;20.73;;
577;SDS011;275;48.492;9.214;2022-12-07T11:43:41;15.52;;;14.07;;
577;SDS011;275;48.492;9.214;2022-12-07T11:46:17;16.55;;;15.00;;
577;SDS011;275;48.492;9.214;2022-12-07T11:48:46;13.80;;;12.25;;
577;SDS011;275;48.492;9.214;2022-12-07T11:51:17;8.57;;;7.78;;
577;SDS011;275;48.492;9.214;2022-12-07T11:53:48;9.50;;;8.60;;
577;SDS011;275;48.492;9.214;2022-12-07T11:56:19;14.00;;;12.70;;
577;SDS011;275;48.492;9.214;2022-12-07T11:58:49;12.80;;;11.50;;
577;SDS011;275;48.492;9.214;2022-12-07T12:01:31;13.13;;;11.93;;
577;SDS011;275;48.492;9.214;2022-12-07T12:04:12;14.07;;;12.77;;
577;SDS011;275;48.492;9.214;2022-12-07T12:06:47;11.48;;;10.35;;
577;SDS011;275;48.492;9.214;2022-12-07T12:09:14;16.48;;;14.77;;
577;SDS011;275;48.492;9.214;2022-12-07T12:11:51;26.35;;;23.95;;
577;SDS011;275;48.492;9.214;2022-12-07T12:14:36;7.63;;;6.82;;
577;SDS011;275;48.492;9.214;2022-12-07T12:17:18;9.85;;;9.05;;
577;SDS011;275;48.492;9.214;2022-12-07T12:20:18;8.38;;;7.63;;
577;SDS011;275;48.492;9.214;2022-12-07T12:22:49;9.18;;;8.38;;
577;SDS011;275;48.492;9.214;2022-12-07T12:25:21;12.18;;;10.93;;
577;SDS011;275;48.492;9.214;2022-12-07T12:27:50;8.18;;;6.63;;
577;SDS011;275;48.492;9.214;2022-12-07T12:30:25;7.80;;;7.10;;
577;SDS011;275;48.492;9.214;2022-12-07T12:33:04;10.40;;;9.40;;
577;SDS011;275;48.492;9.214;2022-12-07T12:35:34;9.43;;;8.55;;
577;SDS011;275;48.492;9.214;2022-12-07T12:41:00;8.30;;;7.38;;
577;SDS011;275;48.492;9.214;2022-12-07T12:43:47;10.68;;;9.68;;
577;SDS011;275;48.492;9.214;2022-12-07T12:49:30;11.88;;;10.82;;
577;SDS011;275;48.492;9.214;2022-12-07T12:55:17;6.55;;;5.95;;
577;SDS011;275;48.492;9.214;2022-12-07T13:04:12;7.47;;;6.60;;
577;SDS011;275;48.492;9.214;2022-12-07T13:06:44;7.53;;;6.82;;
577;SDS011;275;48.492;9.214;2022-12-07T13:09:17;8.20;;;7.50;;
577;SDS011;275;48.492;9.214;2022-12-07T13:11:49;8.40;;;7.60;;
577;SDS011;275;48.492;9.214;2022-12-07T13:14:41;11.30;;;10.25;;
577;SDS011;275;48.492;9.214;2022-12-07T13:23:16;14.48;;;12.98;;
577;SDS011;275;48.492;9.214;2022-12-07T13:25:51;10.40;;;9.30;;
577;SDS011;275;48.492;9.214;2022-12-07T13:28:23;12.20;;;11.10;;
577;SDS011;275;48.492;9.214;2022-12-07T13:31:02;10.18;;;9.25;;
577;SDS011;275;48.492;9.214;2022-12-07T13:33:37;11.25;;;10.25;;
577;SDS011;275;48.492;9.214;2022-12-07T13:36:08;8.60;;;7.80;;
577;SDS011;275;48.492;9.214;2022-12-07T13:38:48;10.80;;;9.80;;
577;SDS011;275;48.492;9.214;2022-12-07T13:41:17;12.70;;;11.50;;
577;SDS011;275;48.492;9.214;2022-12-07T13:43:49;13.35;;;12.15;;
577;SDS011;275;48.492;9.214;2022-12-07T13:46:19;8.60;;;7.80;;
577;SDS011;275;48.492;9.214;2022-12-07T13:48:52;11.68;;;10.68;;
577;SDS011;275;48.492;9.214;2022-12-07T13:51:21;9.15;;;8.15;;
577;SDS011;275;48.492;9.214;2022-12-07T13:53:51;10.52;;;9.52;;
577;SDS011;275;48.492;9.214;2022-12-07T13:56:25;10.05;;;9.15;;
577;SDS011;275;48.492;9.214;2022-12-07T13:58:55;15.25;;;13.02;;
577;SDS011;275;48.492;9.214;2022-12-07T14:01:22;10.48;;;9.48;;
577;SDS011;275;48.492;9.214;2022-12-07T14:03:50;8.52;;;7.72;;
577;SDS011;275;48.492;9.214;2022-12-07T14:06:20;15.00;;;13.50;;
577;SDS011;275;48.492;9.214;2022-12-07T14:09:06;19.05;;;17.15;;
577;SDS011;275;48.492;9.214;2022-12-07T14:11:34;10.00;;;9.05;;
577;SDS011;275;48.492;9.214;2022-12-07T14:14:02;13.55;;;12.25;;
577;SDS011;275;48.492;9.214;2022-12-07T14:16:31;8.73;;;7.82;;
577;SDS011;275;48.492;9.214;2022-12-07T14:19:00;12.65;;;11.55;;
577;SDS011;275;48.492;9.214;2022-12-07T14:21:29;9.10;;;8.30;;
577;SDS011;275;48.492;9.214;2022-12-07T14:26:49;11.75;;;10.75;;
577;SDS011;275;48.492;9.214;2022-12-07T14:29:31;13.63;;;12.43;;
577;SDS011;275;48.492;9.214;2022-12-07T14:32:10;12.85;;;11.63;;
577;SDS011;275;48.492;9.214;2022-12-07T14:34:52;10.82;;;9.70;;
577;SDS011;275;48.492;9.214;2022-12-07T14:37:24;16.45;;;14.95;;
577;SDS011;275;48.492;9.214;2022-12-07T14:39:51;13.77;;;12.00;;
577;SDS011;275;48.492;9.214;2022-12-07T14:42:18;9.35;;;8.43;;
577;SDS011;275;48.492;9.214;2022-12-07T14:44:47;10.80;;;9.80;;
577;SDS011;275;48.492;9.214;2022-12-07T14:47:13;20.08;;;18.10;;
577;SDS011;275;48.492;9.214;2022-12-07T14:49:40;14.80;;;13.43;;
577;SDS011;275;48.492;9.214;2022-12-07T14:52:09;14.52;;;13.13;;
577;SDS011;275;48.492;9.214;2022-12-07T14:54:42;13.07;;;11.82;;
577;SDS011;275;48.492;9.214;2022-12-07T14:57:09;18.48;;;16.73;;
577;SDS011;275;48.492;9.214;2022-12-07T14:59:37;39.85;;;24.90;;
577;SDS011;275;48.492;9.214;2022-12-07T15:02:05;17.83;;;16.00;;
577;SDS011;275;48.492;9.214;2022-12-07T15:04:33;19.42;;;17.42;;
577;SDS011;275;48.492;9.214;2022-12-07T15:07:00;20.92;;;18.88;;
577;SDS011;275;48.492;9.214;2022-12-07T15:09:28;14.95;;;13.55;;
577;SDS011;275;48.492;9.214;2022-12-07T15:11:55;25.40;;;23.25;;
577;SDS011;275;48.492;9.214;2022-12-07T15:14:22;14.90;;;13.02;;
577;SDS011;275;48.492;9.214;2022-12-07T15:16:49;11.90;;;10.80;;
577;SDS011;275;48.492;9.214;2022-12-07T15:19:18;11.75;;;10.70;;
577;SDS011;275;48.492;9.214;2022-12-07T15:21:48;11.88;;;10.65;;
577;SDS011;275;48.492;9.214;2022-12-07T15:24:15;11.63;;;9.90;;
577;SDS011;275;48.492;9.214;2022-12-07T15:26:42;14.63;;;10.48;;
577;SDS011;275;48.492;9.214;2022-12-07T15:29:09;34.20;;;16.17;;
577;SDS011;275;48.492;9.214;2022-12-07T15:31:36;15.52;;;13.45;;
577;SDS011;275;48.492;9.214;2022-12-07T15:34:04;13.32;;;12.10;;
577;SDS011;275;48.492;9.214;2022-12-07T15:36:33;12.88;;;11.57;;
577;SDS011;275;48.492;9.214;2022-12-07T15:39:00;10.18;;;9.27;;
577;SDS011;275;48.492;9.214;2022-12-07T15:41:28;13.45;;;10.68;;
577;SDS011;275;48.492;9.214;2022-12-07T15:43:55;11.38;;;10.20;;
577;SDS011;275;48.492;9.214;2022-12-07T15:46:40;11.52;;;10.52;;
577;SDS011;275;48.492;9.214;2022-12-07T15:49:09;12.82;;;10.45;;
577;SDS011;275;48.492;9.214;2022-12-07T15:51:39;11.88;;;10.63;;
577;SDS011;275;48.492;9.214;2022-12-07T15:54:07;14.70;;;11.93;;
577;SDS011;275;48.492;9.214;2022-12-07T15:56:37;11.90;;;10.70;;
577;SDS011;275;48.492;9.214;2022-12-07T15:59:04;11.60;;;10.50;;
577;SDS011;275;48.492;9.214;2022-12-07T16:01:31;13.98;;;12.57;;
577;SDS011;275;48.492;9.214;2022-12-07T16:03:58;14.23;;;12.82;;
577;SDS011;275;48.492;9.214;2022-12-07T16:06:25;13.57;;;12.20;;